Flight Track Log - Related Links

Times and Time Zones

All times are in EDT time to prevent confusion due to time zone crossing. See the AAL971 flight status page for this flight to view local times or setup timezone preferences in your user account.


Time Position Orientation Groundspeed Altitude Reporting Facility
EDT Latitude Longitude Course Direction KTS MPH feet Rate Location/Type
Wed 02:54:00 PM 12.6649 -85.9595 18° North  Level Estimated
Wed 02:55:00 PM 12.8393 -85.8897 22° Northeast  Level Estimated
Wed 02:56:00 PM 13.0137 -85.8199 21° North  Level Estimated
Wed 02:57:00 PM 13.1881 -85.7499 18° North  Level Estimated
Wed 02:58:00 PM 13.3625 -85.6799 26° Northeast  Level Estimated
Wed 02:59:00 PM 13.5368 -85.6097 23° Northeast  Level Estimated
Wed 03:00:00 PM 13.7112 -85.5395 20° North  Level Estimated
Wed 03:01:00 PM 13.8865 -85.4719 21° North  Level FlightAware Approximate
Wed 03:02:00 PM 14.0608 -85.4014 21° North  Level Estimated
Wed 03:03:00 PM 14.2353 -85.3313 21° North  Level FlightAware Approximate
Wed 03:04:00 PM 14.4097 -85.2612 21° North  Level FlightAware Approximate
Wed 03:05:00 PM 14.5842 -85.1910 21° North  Level FlightAware Approximate
Wed 03:06:00 PM 14.7586 -85.1206 21° North  Level FlightAware Approximate
Wed 03:07:00 PM 14.9327 -85.0495 21° North  Level Estimated
Wed 03:08:00 PM 15.1074 -84.9798 21° North  Level FlightAware Approximate
Wed 03:09:00 PM 15.2821 -84.9099 21° North  Level FlightAware Approximate
Wed 03:10:00 PM 15.4567 -84.8399 21° North  Level FlightAware Approximate
Wed 03:11:00 PM 15.6313 -84.7697 21° North  Level FlightAware Approximate
Wed 03:12:00 PM 15.8059 -84.6995 21° North  Level FlightAware Approximate
Wed 03:13:00 PM 15.9805 -84.6291 21° North  Level FlightAware Approximate
Wed 03:14:00 PM 16.1550 -84.5586 21° North  Level FlightAware Approximate
Wed 03:15:00 PM 16.3290 -84.4864 21° North  Level Estimated
Wed 03:16:00 PM 16.5035 -84.4158 21° North  Level FlightAware Approximate
Wed 03:17:00 PM 16.6780 -84.3451 21° North  Level FlightAware Approximate
Wed 03:18:00 PM 16.8526 -84.2743 21° North  Level FlightAware Approximate
Wed 03:19:00 PM 17.0271 -84.2033 21° North  Level FlightAware Approximate
Wed 03:20:00 PM 17.2015 -84.1323 21° North  Level FlightAware Approximate
Wed 03:21:00 PM 17.3759 -84.0610 21° North  Level FlightAware Approximate
Wed 03:22:00 PM 17.5504 -83.9897 21° North  Level FlightAware Approximate
Wed 03:23:00 PM 17.7248 -83.9182 21° North  Level FlightAware Approximate
Wed 03:24:00 PM 17.8991 -83.8465 21° North  Level FlightAware Approximate
Wed 03:25:00 PM 18.0735 -83.7747 21° North  Level FlightAware Approximate
Wed 03:26:00 PM 18.2478 -83.7028 21° North  Level FlightAware Approximate
Wed 03:27:00 PM 18.4220 -83.6308 21° North  Level FlightAware Approximate
Wed 03:28:00 PM 18.5963 -83.5585 21° North  Level FlightAware Approximate
Wed 03:29:00 PM 18.7705 -83.4862 21° North  Level FlightAware Approximate
Wed 03:30:00 PM 18.9447 -83.4137 21° North  Level FlightAware Approximate
Wed 03:31:00 PM 19.1189 -83.3410 22° Northeast  Level FlightAware Approximate
Wed 03:32:00 PM 19.2930 -83.2682 22° Northeast  Level FlightAware Approximate
Wed 03:33:00 PM 19.4671 -83.1952 22° Northeast  Level FlightAware Approximate
Wed 03:34:00 PM 19.6412 -83.1221 22° Northeast  Level FlightAware Approximate
Wed 03:35:00 PM 19.8142 -83.0460 22° Northeast  Level Estimated
Wed 03:36:00 PM 19.9883 -82.9727 22° Northeast  Level FlightAware Approximate
Wed 03:37:00 PM 20.1623 -82.8992 22° Northeast  Level FlightAware Approximate
Wed 03:38:00 PM 20.3352 -82.8225 23° Northeast  Level Estimated
Wed 03:39:00 PM 20.5078 -82.7451 23° Northeast  Level FlightAware Approximate
Wed 03:40:00 PM 20.6803 -82.6674 23° Northeast  Level FlightAware Approximate
Wed 03:41:00 PM 20.8528 -82.5896 23° Northeast  Level FlightAware Approximate
Wed 03:42:00 PM 21.0255 -82.5122 22° Northeast  Level Estimated
Wed 03:43:00 PM 21.2005 -82.4407 21° North  Level FlightAware Approximate
Wed 03:44:00 PM 21.3731 -82.3628 22° Northeast  Level Estimated
Wed 03:45:00 PM 21.5466 -82.2872 22° Northeast  Level FlightAware Approximate
Wed 03:46:00 PM 21.7200 -82.2114 22° Northeast  Level FlightAware Approximate
Wed 03:47:00 PM 21.8934 -82.1354 22° Northeast  Level FlightAware Approximate
Wed 03:48:00 PM 22.0669 -82.0593 22° Northeast  Level FlightAware Approximate
Wed 03:49:00 PM 22.2402 -81.9829 22° Northeast  Level FlightAware Approximate
Wed 03:50:00 PM 22.4135 -81.9064 22° Northeast  Level FlightAware Approximate
Wed 03:51:00 PM 22.5868 -81.8297 22° Northeast  Level FlightAware Approximate
Wed 03:52:00 PM 22.7601 -81.7528 22° Northeast  Level FlightAware Approximate
Wed 03:53:00 PM 22.9333 -81.6756 22° Northeast  Level FlightAware Approximate
Wed 03:54:00 PM 23.1065 -81.5983 22° Northeast  Level FlightAware Approximate
Wed 03:55:00 PM 23.2796 -81.5208 22° Northeast  Level FlightAware Approximate
Wed 03:56:00 PM 23.4527 -81.4431 22° Northeast  Level FlightAware Approximate
Wed 03:57:00 PM 23.6258 -81.3652 22° Northeast  Level FlightAware Approximate
Wed 03:58:00 PM 23.7968 -81.2819 20° North  Level Estimated
Wed 03:59:00 PM 23.9678 -81.1984 18° North  Level Estimated
Wed 04:00:00 PM 24.1387 -81.1147 North  Level Estimated
Wed 04:01:00 PM 24.3095 -81.0308 15° North  Level Estimated
Wed 04:02:00 PM 24.4803 -80.9466 North  Level Estimated
Wed 04:03:00 PM 24.6511 -80.8623 North  Level Estimated
Wed 04:04:00 PM 24.8046 -80.9803 325° Northwest  Level FlightAware Approximate
Wed 04:05:00 PM 24.9633 -80.8707 North  Level Estimated
Wed 04:06:00 PM 25.1218 -80.7608 North  Level Estimated
Wed 04:07:00 PM 25.2803 -80.6506 10° North  Level Estimated
Wed 04:08:00 PM 25.4387 -80.5401 32° Northeast  Level Estimated
Wed 04:09:00 PM 25.5970 -80.4294 32° Northeast  Level Estimated
Wed 04:10:00 PM 25.7552 -80.3183 32° Northeast  Level Estimated
Wed 04:11:00 PM 25.7833 -80.2833 77° East  Level FlightAware Approximate
Wed 04:12:00 PM 25.7954 -80.2901 77° East  Level Estimated
Wed 04:13:00 PM 25.7954 -80.2901 77° East  Level Estimated
Wed 04:14:00 PM 25.7954 -80.2901 77° East  Level Estimated
Wed 04:15:00 PM 25.7954 -80.2901 77° East  Level Estimated
Wed 04:16:00 PM 25.7954 -80.2901 77° East  Level Estimated
Wed 04:17:00 PM 25.7954 -80.2901 77° East  Level Estimated
Wed 04:18:00 PM 25.7954 -80.2901 77° East  Level Estimated
Wed 04:19:00 PM 25.7954 -80.2901 77° East  Level Estimated
Wed 04:20:00 PM 25.7954 -80.2901 77° East  Level Estimated
Wed 04:21:00 PM 25.7954 -80.2901 77° East  Level Estimated
Wed 04:22:00 PM 25.7954 -80.2901 77° East  Level Estimated
Wed 04:23:00 PM 25.7954 -80.2901 77° East  Level Estimated
Wed 04:24:00 PM 25.7954 -80.2901 77° East  Level Estimated
Wed 04:25:00 PM 25.7954 -80.2901 77° East  Level Estimated
Wed 04:26:00 PM 25.7954 -80.2901 77° East  Level Estimated
Wed 04:27:00 PM 25.7954 -80.2901 77° East  Level Estimated

Login

Don't have an account? Register now (free) for customized features, flight alerts, and more!